KGRF/GRF METAR and TAF weather

Enter ICAO airport designator
Station Type Date Time Source
KGRF METAR 2020/01/23 04:58 UTC NOAA

KGRF 230458Z AUTO 16008KT 10SM FEW100 OVC140 10/10 A2997 RMK AO2 SLPNO T01010101 $


Station Type Date Time Source
KGRF Decoded METAR 2020/01/23 04:58 UTC NOAA

Fort Lewis / Gray U. S. Army Airfield, WA, United States (KGRF) 47-07N 122-33W 87M
Jan 22, 2020 - 11:58 PM EST / 2020.01.23 0458 UTC
Wind: from the SSE (160 degrees) at 9 MPH (8 KT):0
Visibility: 10 mile(s):0
Sky conditions: overcast
Temperature: 50.2 F (10.1 C)
Dew Point: 50.2 F (10.1 C)
Relative Humidity: 100%
Pressure (altimeter): 29.97 in. Hg (1014 hPa)
ob: KGRF 230458Z AUTO 16008KT 10SM FEW100 OVC140 10/10 A2997 RMK AO2 SLPNO T01010101
cycle: 5

Station Type Date Time Source
KGRF TAF 2020/01/23 05:06 UTC NOAA

TAF KGRF 230500Z 2305/2411 17009KT 9999 BKN025 OVC060 520204 QNH2993INS
TEMPO 2305/2309 18012G18KT 8000 -RA BR BKN015 520005
BECMG 2308/2309 18012G18KT 8000 -RA BR BKN015 520005 QNH2994INS
BECMG 2320/2321 19012G20KT 8000 -RA BR SCT015 BKN030 OVC030 520006 QNH2989INS
BECMG 2402/2403 17012KT 6000 RA BKN015 OVC100 QNH2984INS
BECMG 2406/2407 16009KT 8000 -RA BR SCT015 BKN020 OVC100 QNH2980INS TX11/2322Z TN05/2310Z

Example: see airport list